sensor_id;sensor_type;location;lat;lon;timestamp;P1;durP1;ratioP1;P2;durP2;ratioP2
21202;SDS011;10759;51.982;9.232;2022-12-20T00:00:14;35.25;;;30.88;;
21202;SDS011;10759;51.982;9.232;2022-12-20T00:02:44;34.47;;;30.95;;
21202;SDS011;10759;51.982;9.232;2022-12-20T00:05:12;33.95;;;30.33;;
21202;SDS011;10759;51.982;9.232;2022-12-20T00:07:40;34.88;;;30.83;;
21202;SDS011;10759;51.982;9.232;2022-12-20T00:10:09;36.80;;;30.73;;
21202;SDS011;10759;51.982;9.232;2022-12-20T00:12:37;35.22;;;29.70;;
21202;SDS011;10759;51.982;9.232;2022-12-20T00:15:05;32.55;;;29.10;;
21202;SDS011;10759;51.982;9.232;2022-12-20T00:17:34;33.20;;;29.63;;
21202;SDS011;10759;51.982;9.232;2022-12-20T00:20:05;33.38;;;29.77;;
21202;SDS011;10759;51.982;9.232;2022-12-20T00:22:35;33.35;;;29.73;;
21202;SDS011;10759;51.982;9.232;2022-12-20T00:25:04;33.38;;;29.85;;
21202;SDS011;10759;51.982;9.232;2022-12-20T00:27:33;34.67;;;29.17;;
21202;SDS011;10759;51.982;9.232;2022-12-20T00:30:01;34.17;;;30.48;;
21202;SDS011;10759;51.982;9.232;2022-12-20T00:32:34;34.70;;;31.00;;
21202;SDS011;10759;51.982;9.232;2022-12-20T00:35:08;35.72;;;29.95;;
21202;SDS011;10759;51.982;9.232;2022-12-20T00:37:36;33.80;;;30.13;;
21202;SDS011;10759;51.982;9.232;2022-12-20T00:40:07;33.53;;;29.20;;
21202;SDS011;10759;51.982;9.232;2022-12-20T00:42:43;34.83;;;29.92;;
21202;SDS011;10759;51.982;9.232;2022-12-20T00:45:13;32.92;;;29.50;;
21202;SDS011;10759;51.982;9.232;2022-12-20T00:47:41;32.25;;;28.77;;
21202;SDS011;10759;51.982;9.232;2022-12-20T00:50:16;33.75;;;28.83;;
21202;SDS011;10759;51.982;9.232;2022-12-20T00:52:44;33.13;;;29.73;;
21202;SDS011;10759;51.982;9.232;2022-12-20T00:55:12;33.35;;;29.70;;
21202;SDS011;10759;51.982;9.232;2022-12-20T00:57:40;31.88;;;28.58;;
21202;SDS011;10759;51.982;9.232;2022-12-20T01:00:08;33.05;;;29.50;;
21202;SDS011;10759;51.982;9.232;2022-12-20T01:02:37;33.63;;;29.65;;
21202;SDS011;10759;51.982;9.232;2022-12-20T01:05:06;33.55;;;30.05;;
21202;SDS011;10759;51.982;9.232;2022-12-20T01:07:36;34.70;;;30.58;;
21202;SDS011;10759;51.982;9.232;2022-12-20T01:10:05;37.60;;;31.03;;
21202;SDS011;10759;51.982;9.232;2022-12-20T01:12:36;34.60;;;30.90;;
21202;SDS011;10759;51.982;9.232;2022-12-20T01:15:04;36.03;;;30.80;;
21202;SDS011;10759;51.982;9.232;2022-12-20T01:17:35;32.75;;;29.33;;
21202;SDS011;10759;51.982;9.232;2022-12-20T01:20:06;36.75;;;30.92;;
21202;SDS011;10759;51.982;9.232;2022-12-20T01:22:35;34.75;;;31.00;;
21202;SDS011;10759;51.982;9.232;2022-12-20T01:25:12;34.35;;;30.27;;
21202;SDS011;10759;51.982;9.232;2022-12-20T01:27:40;35.17;;;31.48;;
21202;SDS011;10759;51.982;9.232;2022-12-20T01:30:09;35.65;;;31.63;;
21202;SDS011;10759;51.982;9.232;2022-12-20T01:32:38;35.90;;;31.80;;
21202;SDS011;10759;51.982;9.232;2022-12-20T01:35:06;34.25;;;30.55;;
21202;SDS011;10759;51.982;9.232;2022-12-20T01:37:36;35.28;;;29.92;;
21202;SDS011;10759;51.982;9.232;2022-12-20T01:40:05;37.08;;;30.65;;
21202;SDS011;10759;51.982;9.232;2022-12-20T01:42:35;38.15;;;31.52;;
21202;SDS011;10759;51.982;9.232;2022-12-20T01:45:05;36.13;;;30.30;;
21202;SDS011;10759;51.982;9.232;2022-12-20T01:47:47;34.20;;;30.50;;
21202;SDS011;10759;51.982;9.232;2022-12-20T01:50:15;34.80;;;30.15;;
21202;SDS011;10759;51.982;9.232;2022-12-20T01:52:45;32.63;;;29.33;;
21202;SDS011;10759;51.982;9.232;2022-12-20T01:55:17;32.38;;;28.92;;
21202;SDS011;10759;51.982;9.232;2022-12-20T01:57:50;31.98;;;28.58;;
21202;SDS011;10759;51.982;9.232;2022-12-20T02:00:25;33.90;;;28.98;;
21202;SDS011;10759;51.982;9.232;2022-12-20T02:02:53;31.90;;;28.50;;
21202;SDS011;10759;51.982;9.232;2022-12-20T02:05:22;32.72;;;28.38;;
21202;SDS011;10759;51.982;9.232;2022-12-20T02:07:52;32.38;;;28.98;;
21202;SDS011;10759;51.982;9.232;2022-12-20T02:10:23;31.95;;;28.48;;
21202;SDS011;10759;51.982;9.232;2022-12-20T02:13:00;30.55;;;27.23;;
21202;SDS011;10759;51.982;9.232;2022-12-20T02:15:36;32.08;;;27.90;;
21202;SDS011;10759;51.982;9.232;2022-12-20T02:18:15;30.83;;;27.83;;
21202;SDS011;10759;51.982;9.232;2022-12-20T02:27:19;29.35;;;26.35;;
21202;SDS011;10759;51.982;9.232;2022-12-20T02:30:02;29.23;;;25.90;;
21202;SDS011;10759;51.982;9.232;2022-12-20T02:32:43;30.38;;;27.08;;
21202;SDS011;10759;51.982;9.232;2022-12-20T02:35:18;30.35;;;27.15;;
21202;SDS011;10759;51.982;9.232;2022-12-20T02:37:53;30.52;;;27.15;;
21202;SDS011;10759;51.982;9.232;2022-12-20T02:40:26;31.17;;;27.45;;
21202;SDS011;10759;51.982;9.232;2022-12-20T02:42:59;30.33;;;27.10;;
21202;SDS011;10759;51.982;9.232;2022-12-20T02:45:52;31.30;;;27.63;;
21202;SDS011;10759;51.982;9.232;2022-12-20T02:48:24;31.77;;;28.58;;
21202;SDS011;10759;51.982;9.232;2022-12-20T02:50:57;32.40;;;29.20;;
21202;SDS011;10759;51.982;9.232;2022-12-20T02:53:29;31.38;;;28.17;;
21202;SDS011;10759;51.982;9.232;2022-12-20T02:56:02;31.10;;;27.85;;
21202;SDS011;10759;51.982;9.232;2022-12-20T02:58:40;30.73;;;27.52;;
21202;SDS011;10759;51.982;9.232;2022-12-20T03:01:16;31.75;;;28.63;;
21202;SDS011;10759;51.982;9.232;2022-12-20T03:03:52;32.60;;;29.10;;
21202;SDS011;10759;51.982;9.232;2022-12-20T03:06:21;30.98;;;27.80;;
21202;SDS011;10759;51.982;9.232;2022-12-20T03:08:49;30.20;;;27.20;;
21202;SDS011;10759;51.982;9.232;2022-12-20T03:11:21;31.38;;;28.05;;
21202;SDS011;10759;51.982;9.232;2022-12-20T03:13:49;31.67;;;26.88;;
21202;SDS011;10759;51.982;9.232;2022-12-20T03:16:19;31.80;;;28.45;;
21202;SDS011;10759;51.982;9.232;2022-12-20T03:18:47;33.20;;;29.77;;
21202;SDS011;10759;51.982;9.232;2022-12-20T03:21:15;33.47;;;29.80;;
21202;SDS011;10759;51.982;9.232;2022-12-20T03:23:46;34.10;;;30.63;;
21202;SDS011;10759;51.982;9.232;2022-12-20T03:26:14;33.22;;;29.70;;
21202;SDS011;10759;51.982;9.232;2022-12-20T03:28:48;31.98;;;28.60;;
21202;SDS011;10759;51.982;9.232;2022-12-20T03:31:20;34.88;;;31.15;;
21202;SDS011;10759;51.982;9.232;2022-12-20T03:33:52;34.00;;;30.45;;
21202;SDS011;10759;51.982;9.232;2022-12-20T03:36:21;34.80;;;31.13;;
21202;SDS011;10759;51.982;9.232;2022-12-20T03:38:57;33.88;;;30.30;;
21202;SDS011;10759;51.982;9.232;2022-12-20T03:41:34;33.50;;;30.13;;
21202;SDS011;10759;51.982;9.232;2022-12-20T03:44:03;34.40;;;30.67;;
21202;SDS011;10759;51.982;9.232;2022-12-20T03:46:32;34.13;;;30.55;;
21202;SDS011;10759;51.982;9.232;2022-12-20T03:49:03;34.25;;;30.63;;
21202;SDS011;10759;51.982;9.232;2022-12-20T03:51:36;33.97;;;30.33;;
21202;SDS011;10759;51.982;9.232;2022-12-20T03:54:04;34.70;;;31.02;;
21202;SDS011;10759;51.982;9.232;2022-12-20T03:56:57;33.30;;;30.08;;
21202;SDS011;10759;51.982;9.232;2022-12-20T03:59:26;34.88;;;30.60;;
21202;SDS011;10759;51.982;9.232;2022-12-20T04:01:56;34.35;;;30.75;;
21202;SDS011;10759;51.982;9.232;2022-12-20T04:04:27;34.35;;;30.70;;
21202;SDS011;10759;51.982;9.232;2022-12-20T04:06:55;36.13;;;31.63;;
21202;SDS011;10759;51.982;9.232;2022-12-20T04:09:28;35.15;;;31.60;;
21202;SDS011;10759;51.982;9.232;2022-12-20T04:12:03;33.58;;;30.05;;
21202;SDS011;10759;51.982;9.232;2022-12-20T04:14:34;37.15;;;31.00;;
21202;SDS011;10759;51.982;9.232;2022-12-20T04:17:04;32.60;;;28.93;;
21202;SDS011;10759;51.982;9.232;2022-12-20T04:19:34;32.38;;;29.10;;
21202;SDS011;10759;51.982;9.232;2022-12-20T04:22:03;33.42;;;29.90;;
21202;SDS011;10759;51.982;9.232;2022-12-20T04:24:58;36.50;;;32.60;;
21202;SDS011;10759;51.982;9.232;2022-12-20T04:27:32;33.95;;;30.30;;
21202;SDS011;10759;51.982;9.232;2022-12-20T04:30:05;33.97;;;30.40;;
21202;SDS011;10759;51.982;9.232;2022-12-20T04:32:35;35.90;;;31.40;;
21202;SDS011;10759;51.982;9.232;2022-12-20T04:35:03;35.50;;;31.60;;
21202;SDS011;10759;51.982;9.232;2022-12-20T04:37:37;32.17;;;28.88;;
21202;SDS011;10759;51.982;9.232;2022-12-20T04:40:06;34.35;;;30.75;;
21202;SDS011;10759;51.982;9.232;2022-12-20T04:42:42;32.78;;;29.33;;
21202;SDS011;10759;51.982;9.232;2022-12-20T04:45:13;34.40;;;30.75;;
21202;SDS011;10759;51.982;9.232;2022-12-20T04:47:44;34.35;;;30.85;;
21202;SDS011;10759;51.982;9.232;2022-12-20T04:50:15;34.30;;;30.58;;
21202;SDS011;10759;51.982;9.232;2022-12-20T04:52:45;33.95;;;30.27;;
21202;SDS011;10759;51.982;9.232;2022-12-20T04:55:35;33.53;;;29.95;;
21202;SDS011;10759;51.982;9.232;2022-12-20T04:58:04;34.85;;;31.13;;
21202;SDS011;10759;51.982;9.232;2022-12-20T05:00:35;35.45;;;31.27;;
21202;SDS011;10759;51.982;9.232;2022-12-20T05:03:17;34.10;;;30.35;;
21202;SDS011;10759;51.982;9.232;2022-12-20T05:05:45;35.80;;;32.22;;
21202;SDS011;10759;51.982;9.232;2022-12-20T06:14:13;37.92;;;33.95;;
21202;SDS011;10759;51.982;9.232;2022-12-20T06:16:46;53.30;;;43.50;;
21202;SDS011;10759;51.982;9.232;2022-12-20T06:19:18;47.30;;;41.42;;
21202;SDS011;10759;51.982;9.232;2022-12-20T06:21:56;44.65;;;39.83;;
21202;SDS011;10759;51.982;9.232;2022-12-20T06:24:49;42.33;;;37.78;;
21202;SDS011;10759;51.982;9.232;2022-12-20T06:27:24;38.38;;;33.50;;
21202;SDS011;10759;51.982;9.232;2022-12-20T06:30:05;38.75;;;34.72;;
21202;SDS011;10759;51.982;9.232;2022-12-20T06:33:05;34.83;;;31.33;;
21202;SDS011;10759;51.982;9.232;2022-12-20T06:35:33;36.13;;;32.42;;
21202;SDS011;10759;51.982;9.232;2022-12-20T06:38:01;39.28;;;33.75;;
21202;SDS011;10759;51.982;9.232;2022-12-20T06:40:36;37.05;;;33.33;;
21202;SDS011;10759;51.982;9.232;2022-12-20T06:43:05;35.25;;;31.67;;
21202;SDS011;10759;51.982;9.232;2022-12-20T06:45:37;36.25;;;32.28;;
21202;SDS011;10759;51.982;9.232;2022-12-20T06:48:09;36.50;;;32.85;;
21202;SDS011;10759;51.982;9.232;2022-12-20T06:50:39;35.83;;;32.10;;
21202;SDS011;10759;51.982;9.232;2022-12-20T06:53:07;37.15;;;33.08;;
21202;SDS011;10759;51.982;9.232;2022-12-20T06:55:35;35.38;;;31.63;;
21202;SDS011;10759;51.982;9.232;2022-12-20T06:58:07;34.72;;;30.95;;
21202;SDS011;10759;51.982;9.232;2022-12-20T07:00:36;34.63;;;30.95;;
21202;SDS011;10759;51.982;9.232;2022-12-20T07:03:04;37.20;;;32.95;;
21202;SDS011;10759;51.982;9.232;2022-12-20T07:05:33;39.45;;;32.92;;
21202;SDS011;10759;51.982;9.232;2022-12-20T07:08:01;34.75;;;31.05;;
21202;SDS011;10759;51.982;9.232;2022-12-20T07:10:29;36.63;;;32.22;;
21202;SDS011;10759;51.982;9.232;2022-12-20T07:12:57;35.72;;;32.03;;
21202;SDS011;10759;51.982;9.232;2022-12-20T07:15:27;35.05;;;31.17;;
21202;SDS011;10759;51.982;9.232;2022-12-20T07:17:58;33.25;;;29.95;;
21202;SDS011;10759;51.982;9.232;2022-12-20T07:20:29;34.58;;;31.10;;
21202;SDS011;10759;51.982;9.232;2022-12-20T07:22:58;33.20;;;29.80;;
21202;SDS011;10759;51.982;9.232;2022-12-20T07:25:26;32.90;;;29.50;;
21202;SDS011;10759;51.982;9.232;2022-12-20T07:27:54;33.15;;;29.63;;
21202;SDS011;10759;51.982;9.232;2022-12-20T07:30:23;32.67;;;29.17;;
21202;SDS011;10759;51.982;9.232;2022-12-20T07:32:53;36.33;;;32.55;;
21202;SDS011;10759;51.982;9.232;2022-12-20T07:35:29;35.28;;;31.65;;
21202;SDS011;10759;51.982;9.232;2022-12-20T07:37:58;33.30;;;29.73;;
21202;SDS011;10759;51.982;9.232;2022-12-20T07:40:26;32.22;;;28.92;;
21202;SDS011;10759;51.982;9.232;2022-12-20T07:42:54;33.22;;;29.70;;
21202;SDS011;10759;51.982;9.232;2022-12-20T07:45:23;31.50;;;28.30;;
21202;SDS011;10759;51.982;9.232;2022-12-20T07:47:51;30.85;;;27.85;;
21202;SDS011;10759;51.982;9.232;2022-12-20T07:50:21;31.55;;;28.17;;
21202;SDS011;10759;51.982;9.232;2022-12-20T07:52:50;31.42;;;28.38;;
21202;SDS011;10759;51.982;9.232;2022-12-20T07:55:18;32.15;;;29.05;;
21202;SDS011;10759;51.982;9.232;2022-12-20T07:57:48;31.17;;;27.77;;
21202;SDS011;10759;51.982;9.232;2022-12-20T08:00:19;31.70;;;28.33;;
21202;SDS011;10759;51.982;9.232;2022-12-20T08:02:49;30.95;;;27.65;;
21202;SDS011;10759;51.982;9.232;2022-12-20T08:05:23;30.65;;;27.58;;
21202;SDS011;10759;51.982;9.232;2022-12-20T08:07:52;29.80;;;26.92;;
21202;SDS011;10759;51.982;9.232;2022-12-20T08:10:25;30.35;;;27.20;;
21202;SDS011;10759;51.982;9.232;2022-12-20T08:12:54;30.15;;;26.98;;
21202;SDS011;10759;51.982;9.232;2022-12-20T08:15:23;30.90;;;27.60;;
21202;SDS011;10759;51.982;9.232;2022-12-20T08:17:51;28.80;;;25.20;;
21202;SDS011;10759;51.982;9.232;2022-12-20T09:34:29;25.48;;;22.13;;
21202;SDS011;10759;51.982;9.232;2022-12-20T09:36:58;23.13;;;20.80;;
21202;SDS011;10759;51.982;9.232;2022-12-20T09:39:26;24.13;;;21.77;;
21202;SDS011;10759;51.982;9.232;2022-12-20T09:41:54;22.92;;;20.55;;
21202;SDS011;10759;51.982;9.232;2022-12-20T09:44:25;22.52;;;20.38;;
21202;SDS011;10759;51.982;9.232;2022-12-20T09:47:00;21.90;;;19.77;;
21202;SDS011;10759;51.982;9.232;2022-12-20T09:52:24;21.88;;;19.77;;
21202;SDS011;10759;51.982;9.232;2022-12-20T09:55:09;21.70;;;19.00;;
21202;SDS011;10759;51.982;9.232;2022-12-20T09:57:48;21.30;;;19.13;;
21202;SDS011;10759;51.982;9.232;2022-12-20T10:00:27;20.23;;;18.30;;
21202;SDS011;10759;51.982;9.232;2022-12-20T10:02:55;21.33;;;19.45;;
21202;SDS011;10759;51.982;9.232;2022-12-20T10:05:37;20.53;;;18.57;;
21202;SDS011;10759;51.982;9.232;2022-12-20T10:08:15;19.70;;;17.80;;
21202;SDS011;10759;51.982;9.232;2022-12-20T10:10:50;20.08;;;17.98;;
21202;SDS011;10759;51.982;9.232;2022-12-20T10:13:25;17.08;;;15.55;;
21202;SDS011;10759;51.982;9.232;2022-12-20T10:16:04;19.10;;;17.10;;
21202;SDS011;10759;51.982;9.232;2022-12-20T10:18:56;19.08;;;17.15;;
21202;SDS011;10759;51.982;9.232;2022-12-20T10:21:38;21.55;;;15.00;;
21202;SDS011;10759;51.982;9.232;2022-12-20T10:24:16;17.48;;;15.68;;
21202;SDS011;10759;51.982;9.232;2022-12-20T10:26:47;17.83;;;16.02;;
21202;SDS011;10759;51.982;9.232;2022-12-20T10:29:17;17.00;;;15.43;;
21202;SDS011;10759;51.982;9.232;2022-12-20T10:31:47;15.98;;;14.40;;
21202;SDS011;10759;51.982;9.232;2022-12-20T10:34:17;17.65;;;15.95;;
21202;SDS011;10759;51.982;9.232;2022-12-20T10:36:47;15.48;;;14.02;;
21202;SDS011;10759;51.982;9.232;2022-12-20T10:39:18;18.10;;;16.27;;
21202;SDS011;10759;51.982;9.232;2022-12-20T10:42:22;16.52;;;14.88;;
21202;SDS011;10759;51.982;9.232;2022-12-20T10:44:54;16.67;;;14.63;;
21202;SDS011;10759;51.982;9.232;2022-12-20T10:47:24;16.10;;;14.50;;
21202;SDS011;10759;51.982;9.232;2022-12-20T10:50:07;17.40;;;14.45;;
21202;SDS011;10759;51.982;9.232;2022-12-20T10:52:44;14.63;;;13.23;;
21202;SDS011;10759;51.982;9.232;2022-12-20T10:55:33;16.02;;;14.25;;
21202;SDS011;10759;51.982;9.232;2022-12-20T10:58:03;15.95;;;14.23;;
21202;SDS011;10759;51.982;9.232;2022-12-20T11:00:33;14.70;;;13.35;;
21202;SDS011;10759;51.982;9.232;2022-12-20T11:03:10;16.92;;;15.23;;
21202;SDS011;10759;51.982;9.232;2022-12-20T11:05:51;15.48;;;14.13;;
21202;SDS011;10759;51.982;9.232;2022-12-20T11:08:26;19.08;;;17.15;;
21202;SDS011;10759;51.982;9.232;2022-12-20T11:13:45;15.43;;;13.93;;
21202;SDS011;10759;51.982;9.232;2022-12-20T11:16:21;19.47;;;17.57;;
21202;SDS011;10759;51.982;9.232;2022-12-20T11:19:02;16.70;;;15.10;;
21202;SDS011;10759;51.982;9.232;2022-12-20T11:21:41;20.35;;;17.95;;
21202;SDS011;10759;51.982;9.232;2022-12-20T11:24:20;18.08;;;16.17;;
21202;SDS011;10759;51.982;9.232;2022-12-20T11:27:05;15.18;;;13.52;;
21202;SDS011;10759;51.982;9.232;2022-12-20T11:29:48;16.40;;;14.43;;
21202;SDS011;10759;51.982;9.232;2022-12-20T11:32:31;16.35;;;14.77;;
21202;SDS011;10759;51.982;9.232;2022-12-20T11:35:16;16.05;;;14.63;;
21202;SDS011;10759;51.982;9.232;2022-12-20T11:37:50;16.80;;;14.25;;
21202;SDS011;10759;51.982;9.232;2022-12-20T11:40:37;16.35;;;14.65;;
21202;SDS011;10759;51.982;9.232;2022-12-20T11:46:36;16.48;;;14.85;;
21202;SDS011;10759;51.982;9.232;2022-12-20T11:49:21;16.27;;;14.57;;
21202;SDS011;10759;51.982;9.232;2022-12-20T11:52:02;15.57;;;14.00;;
21202;SDS011;10759;51.982;9.232;2022-12-20T11:54:37;15.85;;;14.00;;
21202;SDS011;10759;51.982;9.232;2022-12-20T11:57:13;15.07;;;13.68;;
21202;SDS011;10759;51.982;9.232;2022-12-20T11:59:46;15.57;;;14.10;;
21202;SDS011;10759;51.982;9.232;2022-12-20T12:02:20;15.40;;;13.95;;
21202;SDS011;10759;51.982;9.232;2022-12-20T12:04:55;15.55;;;13.88;;
21202;SDS011;10759;51.982;9.232;2022-12-20T12:07:28;15.10;;;13.48;;
21202;SDS011;10759;51.982;9.232;2022-12-20T12:09:59;15.82;;;13.88;;
21202;SDS011;10759;51.982;9.232;2022-12-20T12:12:32;15.90;;;14.35;;
21202;SDS011;10759;51.982;9.232;2022-12-20T12:15:18;15.23;;;13.52;;
21202;SDS011;10759;51.982;9.232;2022-12-20T12:17:56;15.50;;;13.95;;
21202;SDS011;10759;51.982;9.232;2022-12-20T12:20:39;15.55;;;14.05;;
21202;SDS011;10759;51.982;9.232;2022-12-20T12:23:17;15.32;;;13.85;;
21202;SDS011;10759;51.982;9.232;2022-12-20T12:25:48;14.80;;;13.43;;
21202;SDS011;10759;51.982;9.232;2022-12-20T12:28:18;15.68;;;13.85;;
21202;SDS011;10759;51.982;9.232;2022-12-20T12:30:49;14.50;;;13.02;;
21202;SDS011;10759;51.982;9.232;2022-12-20T12:33:23;15.30;;;13.80;;
21202;SDS011;10759;51.982;9.232;2022-12-20T12:42:07;14.48;;;13.18;;
21202;SDS011;10759;51.982;9.232;2022-12-20T12:45:02;15.50;;;14.07;;
21202;SDS011;10759;51.982;9.232;2022-12-20T12:47:36;15.50;;;14.00;;
21202;SDS011;10759;51.982;9.232;2022-12-20T12:50:07;14.35;;;12.93;;
21202;SDS011;10759;51.982;9.232;2022-12-20T12:52:47;14.77;;;13.48;;
21202;SDS011;10759;51.982;9.232;2022-12-20T12:55:34;19.45;;;13.75;;
21202;SDS011;10759;51.982;9.232;2022-12-20T13:01:45;14.20;;;12.80;;
21202;SDS011;10759;51.982;9.232;2022-12-20T13:04:26;14.63;;;13.30;;
21202;SDS011;10759;51.982;9.232;2022-12-20T13:06:57;15.40;;;12.88;;
21202;SDS011;10759;51.982;9.232;2022-12-20T13:09:37;14.40;;;12.80;;
21202;SDS011;10759;51.982;9.232;2022-12-20T13:18:25;13.05;;;11.27;;
21202;SDS011;10759;51.982;9.232;2022-12-20T13:27:15;13.77;;;12.43;;
21202;SDS011;10759;51.982;9.232;2022-12-20T13:29:56;13.23;;;12.00;;
21202;SDS011;10759;51.982;9.232;2022-12-20T13:32:56;12.60;;;11.38;;
21202;SDS011;10759;51.982;9.232;2022-12-20T13:35:28;12.35;;;11.23;;
21202;SDS011;10759;51.982;9.232;2022-12-20T13:41:17;13.63;;;12.20;;
21202;SDS011;10759;51.982;9.232;2022-12-20T13:44:02;12.27;;;11.18;;
21202;SDS011;10759;51.982;9.232;2022-12-20T13:46:46;12.18;;;10.73;;
21202;SDS011;10759;51.982;9.232;2022-12-20T13:49:21;12.30;;;11.00;;
21202;SDS011;10759;51.982;9.232;2022-12-20T13:52:18;13.48;;;12.27;;
21202;SDS011;10759;51.982;9.232;2022-12-20T13:54:53;12.93;;;11.63;;
21202;SDS011;10759;51.982;9.232;2022-12-20T13:57:28;12.57;;;11.38;;
21202;SDS011;10759;51.982;9.232;2022-12-20T13:59:59;15.68;;;14.02;;
21202;SDS011;10759;51.982;9.232;2022-12-20T14:02:34;15.23;;;13.65;;
21202;SDS011;10759;51.982;9.232;2022-12-20T14:05:12;12.90;;;11.60;;
21202;SDS011;10759;51.982;9.232;2022-12-20T14:07:44;14.48;;;13.15;;
21202;SDS011;10759;51.982;9.232;2022-12-20T14:10:15;14.35;;;12.68;;
21202;SDS011;10759;51.982;9.232;2022-12-20T14:12:46;12.55;;;11.25;;
21202;SDS011;10759;51.982;9.232;2022-12-20T14:15:20;20.98;;;18.75;;
21202;SDS011;10759;51.982;9.232;2022-12-20T14:17:50;13.27;;;12.00;;
21202;SDS011;10759;51.982;9.232;2022-12-20T14:20:20;13.57;;;12.25;;
21202;SDS011;10759;51.982;9.232;2022-12-20T14:22:55;13.63;;;12.27;;
21202;SDS011;10759;51.982;9.232;2022-12-20T14:25:34;13.77;;;12.07;;
21202;SDS011;10759;51.982;9.232;2022-12-20T14:28:11;13.32;;;12.05;;
21202;SDS011;10759;51.982;9.232;2022-12-20T14:30:52;13.68;;;12.48;;
21202;SDS011;10759;51.982;9.232;2022-12-20T14:33:24;13.88;;;12.48;;
21202;SDS011;10759;51.982;9.232;2022-12-20T14:36:06;13.30;;;12.13;;
21202;SDS011;10759;51.982;9.232;2022-12-20T14:38:46;13.65;;;12.25;;
21202;SDS011;10759;51.982;9.232;2022-12-20T14:41:28;13.18;;;11.88;;
21202;SDS011;10759;51.982;9.232;2022-12-20T14:44:02;14.35;;;12.95;;
21202;SDS011;10759;51.982;9.232;2022-12-20T14:46:45;146.00;;;121.67;;
21202;SDS011;10759;51.982;9.232;2022-12-20T14:49:17;33.50;;;30.63;;
21202;SDS011;10759;51.982;9.232;2022-12-20T14:51:49;17.13;;;15.50;;
21202;SDS011;10759;51.982;9.232;2022-12-20T14:54:20;15.40;;;14.00;;
21202;SDS011;10759;51.982;9.232;2022-12-20T14:57:19;14.88;;;13.57;;
21202;SDS011;10759;51.982;9.232;2022-12-20T15:00:00;13.23;;;11.88;;
21202;SDS011;10759;51.982;9.232;2022-12-20T15:02:33;12.23;;;11.02;;
21202;SDS011;10759;51.982;9.232;2022-12-20T15:05:07;12.55;;;11.50;;
21202;SDS011;10759;51.982;9.232;2022-12-20T15:08:08;13.80;;;12.23;;
21202;SDS011;10759;51.982;9.232;2022-12-20T15:13:11;13.15;;;11.82;;
21202;SDS011;10759;51.982;9.232;2022-12-20T15:15:42;13.27;;;12.00;;
21202;SDS011;10759;51.982;9.232;2022-12-20T15:18:11;13.52;;;12.13;;
21202;SDS011;10759;51.982;9.232;2022-12-20T15:20:41;13.35;;;12.10;;
21202;SDS011;10759;51.982;9.232;2022-12-20T15:25:42;12.90;;;11.60;;
21202;SDS011;10759;51.982;9.232;2022-12-20T15:28:12;14.23;;;12.75;;
21202;SDS011;10759;51.982;9.232;2022-12-20T15:30:42;13.82;;;12.55;;
21202;SDS011;10759;51.982;9.232;2022-12-20T15:33:21;12.37;;;11.30;;
21202;SDS011;10759;51.982;9.232;2022-12-20T15:35:51;15.00;;;13.65;;
21202;SDS011;10759;51.982;9.232;2022-12-20T15:38:21;14.07;;;12.80;;
21202;SDS011;10759;51.982;9.232;2022-12-20T15:43:41;18.90;;;16.90;;
21202;SDS011;10759;51.982;9.232;2022-12-20T15:46:09;14.25;;;12.75;;
21202;SDS011;10759;51.982;9.232;2022-12-20T15:48:37;16.80;;;15.13;;
21202;SDS011;10759;51.982;9.232;2022-12-20T15:51:10;23.58;;;20.58;;
21202;SDS011;10759;51.982;9.232;2022-12-20T15:53:43;21.65;;;16.90;;
21202;SDS011;10759;51.982;9.232;2022-12-20T15:56:15;19.98;;;17.85;;
21202;SDS011;10759;51.982;9.232;2022-12-20T15:58:47;37.13;;;31.70;;
21202;SDS011;10759;51.982;9.232;2022-12-20T16:01:19;17.90;;;16.17;;
21202;SDS011;10759;51.982;9.232;2022-12-20T16:03:49;16.13;;;14.25;;
21202;SDS011;10759;51.982;9.232;2022-12-20T16:06:17;17.65;;;16.05;;
21202;SDS011;10759;51.982;9.232;2022-12-20T16:08:45;15.40;;;13.93;;
21202;SDS011;10759;51.982;9.232;2022-12-20T16:11:18;17.25;;;15.68;;
21202;SDS011;10759;51.982;9.232;2022-12-20T16:13:48;82.80;;;61.95;;
21202;SDS011;10759;51.982;9.232;2022-12-20T16:16:16;24.05;;;21.48;;
21202;SDS011;10759;51.982;9.232;2022-12-20T16:18:46;19.27;;;17.40;;
21202;SDS011;10759;51.982;9.232;2022-12-20T16:21:15;18.92;;;17.02;;
21202;SDS011;10759;51.982;9.232;2022-12-20T16:23:44;16.13;;;14.43;;
21202;SDS011;10759;51.982;9.232;2022-12-20T16:26:13;16.98;;;15.48;;
21202;SDS011;10759;51.982;9.232;2022-12-20T16:28:44;17.88;;;16.13;;
21202;SDS011;10759;51.982;9.232;2022-12-20T16:31:16;18.90;;;17.02;;
21202;SDS011;10759;51.982;9.232;2022-12-20T16:33:50;19.58;;;17.63;;
21202;SDS011;10759;51.982;9.232;2022-12-20T16:36:19;22.10;;;19.95;;
21202;SDS011;10759;51.982;9.232;2022-12-20T16:38:48;21.98;;;19.77;;
21202;SDS011;10759;51.982;9.232;2022-12-20T16:41:18;19.92;;;18.00;;
21202;SDS011;10759;51.982;9.232;2022-12-20T16:46:18;23.48;;;20.98;;
21202;SDS011;10759;51.982;9.232;2022-12-20T16:48:52;21.15;;;19.15;;
21202;SDS011;10759;51.982;9.232;2022-12-20T16:51:21;25.10;;;22.27;;
21202;SDS011;10759;51.982;9.232;2022-12-20T16:53:52;19.75;;;17.75;;
21202;SDS011;10759;51.982;9.232;2022-12-20T16:56:42;20.23;;;18.20;;
21202;SDS011;10759;51.982;9.232;2022-12-20T16:59:13;19.88;;;17.95;;
21202;SDS011;10759;51.982;9.232;2022-12-20T17:01:46;29.05;;;25.88;;
21202;SDS011;10759;51.982;9.232;2022-12-20T17:04:22;21.25;;;19.15;;
21202;SDS011;10759;51.982;9.232;2022-12-20T17:06:53;21.65;;;19.38;;
21202;SDS011;10759;51.982;9.232;2022-12-20T17:09:21;20.85;;;18.80;;
21202;SDS011;10759;51.982;9.232;2022-12-20T17:11:49;22.58;;;20.33;;
21202;SDS011;10759;51.982;9.232;2022-12-20T17:14:19;22.20;;;20.00;;
21202;SDS011;10759;51.982;9.232;2022-12-20T17:16:47;21.05;;;19.00;;
21202;SDS011;10759;51.982;9.232;2022-12-20T17:19:15;25.23;;;22.63;;
21202;SDS011;10759;51.982;9.232;2022-12-20T17:21:44;24.33;;;21.70;;
21202;SDS011;10759;51.982;9.232;2022-12-20T17:24:33;25.70;;;21.77;;
21202;SDS011;10759;51.982;9.232;2022-12-20T17:27:02;25.15;;;22.65;;
21202;SDS011;10759;51.982;9.232;2022-12-20T17:29:32;25.00;;;22.58;;
21202;SDS011;10759;51.982;9.232;2022-12-20T17:32:01;23.90;;;21.42;;
21202;SDS011;10759;51.982;9.232;2022-12-20T17:34:32;23.00;;;19.88;;
21202;SDS011;10759;51.982;9.232;2022-12-20T17:37:01;21.63;;;19.40;;
21202;SDS011;10759;51.982;9.232;2022-12-20T17:39:30;20.15;;;18.17;;
21202;SDS011;10759;51.982;9.232;2022-12-20T17:41:59;20.65;;;18.77;;
21202;SDS011;10759;51.982;9.232;2022-12-20T17:44:27;20.33;;;18.55;;
21202;SDS011;10759;51.982;9.232;2022-12-20T17:46:58;21.45;;;19.25;;
21202;SDS011;10759;51.982;9.232;2022-12-20T17:49:26;19.65;;;17.88;;
21202;SDS011;10759;51.982;9.232;2022-12-20T17:51:55;20.75;;;18.92;;
21202;SDS011;10759;51.982;9.232;2022-12-20T17:54:24;20.85;;;18.85;;
21202;SDS011;10759;51.982;9.232;2022-12-20T17:57:02;18.90;;;17.05;;
21202;SDS011;10759;51.982;9.232;2022-12-20T17:59:30;18.75;;;16.48;;
21202;SDS011;10759;51.982;9.232;2022-12-20T18:02:00;21.35;;;18.95;;
21202;SDS011;10759;51.982;9.232;2022-12-20T18:04:30;26.73;;;22.75;;
21202;SDS011;10759;51.982;9.232;2022-12-20T18:06:59;30.43;;;26.90;;